Time;durP1;ratioP1;P1;durP2;ratioP2;P2;SDS_P1;SDS_P2;PMS_P1;PMS_P2;Temp;Humidity;BMP_temperature;BMP_pressure;BME280_temperature;BME280_humidity;BME280_pressure;Samples;Min_cycle;Max_cycle;Signal;HPM_P1;HPM_P2
2023/11/13 00:01:46;;;;;;;24.13;16.00;;;;;;;;;;5033949;28;20443;-86
2023/11/13 00:04:13;;;;;;;21.30;14.00;;;;;;;;;;5035282;28;20412;-88
2023/11/13 00:06:39;;;;;;;15.63;11.93;;;;;;;;;;5043460;28;20417;-84
2023/11/13 00:09:05;;;;;;;25.30;13.30;;;;;;;;;;5031092;28;20412;-84
2023/11/13 00:11:31;;;;;;;30.63;16.97;;;;;;;;;;5006213;28;20476;-84
2023/11/13 00:13:56;;;;;;;18.60;14.07;;;;;;;;;;5027061;28;20423;-94
2023/11/13 00:16:22;;;;;;;21.33;14.10;;;;;;;;;;5014346;28;20418;-85
2023/11/13 00:18:48;;;;;;;24.43;14.90;;;;;;;;;;5013123;28;21136;-87
2023/11/13 00:21:15;;;;;;;18.00;12.90;;;;;;;;;;5020217;28;20429;-84
2023/11/13 00:23:43;;;;;;;21.73;14.60;;;;;;;;;;5016075;28;20922;-90
2023/11/13 00:26:09;;;;;;;21.27;14.30;;;;;;;;;;5029843;28;20443;-93
2023/11/13 00:28:35;;;;;;;19.67;13.63;;;;;;;;;;5033446;28;20426;-84
2023/11/13 00:31:02;;;;;;;21.80;14.33;;;;;;;;;;5034197;28;20481;-90
2023/11/13 00:33:30;;;;;;;22.63;15.43;;;;;;;;;;5035927;28;20177;-87
2023/11/13 00:35:57;;;;;;;29.07;16.50;;;;;;;;;;5034332;28;20421;-86
2023/11/13 00:38:23;;;;;;;23.60;15.70;;;;;;;;;;5033458;28;20413;-88
2023/11/13 00:40:49;;;;;;;21.90;16.60;;;;;;;;;;5031721;28;20812;-89
2023/11/13 00:43:15;;;;;;;21.90;14.50;;;;;;;;;;5033336;28;20163;-88
2023/11/13 00:45:41;;;;;;;21.33;14.07;;;;;;;;;;5031826;28;20425;-87
2023/11/13 00:48:07;;;;;;;19.50;13.67;;;;;;;;;;5032990;28;20805;-85
2023/11/13 00:50:32;;;;;;;17.60;13.07;;;;;;;;;;5033132;28;20473;-87
2023/11/13 00:52:59;;;;;;;16.60;10.67;;;;;;;;;;5031759;28;20419;-86
2023/11/13 00:55:25;;;;;;;20.50;13.67;;;;;;;;;;5032463;28;20423;-86
2023/11/13 00:57:52;;;;;;;20.30;13.17;;;;;;;;;;5036987;28;20449;-87
2023/11/13 01:00:18;;;;;;;18.00;12.90;;;;;;;;;;5035750;28;20936;-87
2023/11/13 01:02:44;;;;;;;20.83;13.20;;;;;;;;;;5036941;28;20819;-85
2023/11/13 01:05:13;;;;;;;17.67;12.30;;;;;;;;;;5037048;28;20506;-86
2023/11/13 01:07:38;;;;;;;18.30;12.60;;;;;;;;;;5035742;28;20406;-85
2023/11/13 01:10:05;;;;;;;18.93;13.00;;;;;;;;;;5035204;28;20503;-86
2023/11/13 01:12:31;;;;;;;22.73;14.10;;;;;;;;;;5036971;28;20758;-86
2023/11/13 01:14:57;;;;;;;20.83;14.37;;;;;;;;;;5036532;28;20443;-86
2023/11/13 01:17:23;;;;;;;19.80;14.27;;;;;;;;;;5036409;28;20524;-85
2023/11/13 01:19:49;;;;;;;19.80;13.93;;;;;;;;;;5036419;28;20457;-86
2023/11/13 01:22:15;;;;;;;20.87;12.20;;;;;;;;;;5036493;28;20411;-85
2023/11/13 01:24:41;;;;;;;20.87;13.27;;;;;;;;;;5035023;28;20846;-85
2023/11/13 01:27:07;;;;;;;17.90;11.90;;;;;;;;;;5035968;28;20425;-85
2023/11/13 01:29:33;;;;;;;19.17;13.20;;;;;;;;;;5036222;28;20553;-86
2023/11/13 01:32:00;;;;;;;18.43;12.97;;;;;;;;;;5034696;28;20493;-86
2023/11/13 01:34:26;;;;;;;23.90;14.13;;;;;;;;;;5036347;28;20911;-84
2023/11/13 01:36:53;;;;;;;23.27;15.13;;;;;;;;;;5035991;28;20414;-85
2023/11/13 01:39:19;;;;;;;19.50;13.00;;;;;;;;;;5034863;28;20183;-82
2023/11/13 01:41:45;;;;;;;18.43;12.70;;;;;;;;;;5034962;28;20433;-85
2023/11/13 01:44:11;;;;;;;18.53;12.87;;;;;;;;;;5035314;28;20442;-94
2023/11/13 01:46:37;;;;;;;19.90;13.10;;;;;;;;;;5036969;28;20428;-84
2023/11/13 01:49:03;;;;;;;21.60;13.63;;;;;;;;;;5036093;28;20492;-83
2023/11/13 01:51:29;;;;;;;19.07;13.20;;;;;;;;;;5035826;28;20468;-84
2023/11/13 01:53:55;;;;;;;16.93;11.37;;;;;;;;;;5035724;28;20421;-91
2023/11/13 01:56:23;;;;;;;21.00;14.50;;;;;;;;;;5035753;28;20482;-85
2023/11/13 01:58:49;;;;;;;17.93;13.47;;;;;;;;;;5034817;28;20413;-87
2023/11/13 02:01:15;;;;;;;16.63;12.73;;;;;;;;;;5034797;28;20417;-84
2023/11/13 02:03:41;;;;;;;20.00;12.90;;;;;;;;;;5035190;28;20420;-84
2023/11/13 02:06:08;;;;;;;20.37;13.60;;;;;;;;;;5039600;28;20417;-84
2023/11/13 02:08:34;;;;;;;20.20;14.10;;;;;;;;;;5037144;28;20416;-84
2023/11/13 02:11:01;;;;;;;20.37;14.50;;;;;;;;;;4994868;28;20472;-86
2023/11/13 02:13:27;;;;;;;22.00;14.30;;;;;;;;;;5036114;28;20413;-89
2023/11/13 02:15:53;;;;;;;20.70;14.43;;;;;;;;;;5036253;28;20425;-86
2023/11/13 02:18:19;;;;;;;25.97;16.57;;;;;;;;;;5035562;28;20421;-85
2023/11/13 02:20:45;;;;;;;21.40;14.20;;;;;;;;;;5035365;28;20467;-85
2023/11/13 02:23:18;;;;;;;19.33;12.03;;;;;;;;;;5035399;28;20421;-85
2023/11/13 02:25:50;;;;;;;17.63;12.90;;;;;;;;;;5035086;28;20425;-85
2023/11/13 02:28:17;;;;;;;16.33;11.30;;;;;;;;;;5035396;28;20444;-85
2023/11/13 02:30:43;;;;;;;17.83;10.57;;;;;;;;;;5035029;28;20477;-85
2023/11/13 02:33:09;;;;;;;19.37;12.63;;;;;;;;;;5035178;28;20417;-85
2023/11/13 02:35:35;;;;;;;24.00;14.63;;;;;;;;;;5035158;28;20744;-85
2023/11/13 02:38:01;;;;;;;20.10;13.57;;;;;;;;;;5035237;28;20502;-86
2023/11/13 02:40:26;;;;;;;19.93;13.17;;;;;;;;;;5034856;28;20468;-85
2023/11/13 02:42:53;;;;;;;19.53;12.63;;;;;;;;;;5035045;28;20406;-84
2023/11/13 02:45:18;;;;;;;22.40;13.80;;;;;;;;;;5035071;28;20418;-87
2023/11/13 02:47:44;;;;;;;19.60;13.17;;;;;;;;;;5035016;28;20495;-88
2023/11/13 02:50:11;;;;;;;19.27;13.90;;;;;;;;;;5035633;28;20980;-86
2023/11/13 02:52:37;;;;;;;21.30;13.40;;;;;;;;;;5035978;28;20405;-91
2023/11/13 02:55:04;;;;;;;17.73;13.27;;;;;;;;;;5034291;28;20530;-87
2023/11/13 02:57:30;;;;;;;17.33;11.00;;;;;;;;;;5035589;28;20429;-87
2023/11/13 02:59:56;;;;;;;17.13;11.93;;;;;;;;;;5035572;28;20445;-90
2023/11/13 03:02:22;;;;;;;14.60;10.50;;;;;;;;;;5035552;28;20401;-88
2023/11/13 03:04:48;;;;;;;15.53;11.57;;;;;;;;;;5035554;28;20417;-91
2023/11/13 03:07:14;;;;;;;19.27;13.60;;;;;;;;;;5035377;28;20413;-90
2023/11/13 03:09:40;;;;;;;17.87;12.40;;;;;;;;;;5033656;28;20452;-87
2023/11/13 03:12:07;;;;;;;25.30;16.73;;;;;;;;;;5034558;28;20420;-91
2023/11/13 03:14:34;;;;;;;25.77;17.17;;;;;;;;;;5035249;28;20413;-90
2023/11/13 03:17:00;;;;;;;25.43;15.90;;;;;;;;;;5035153;28;20418;-87
2023/11/13 03:19:25;;;;;;;22.40;15.23;;;;;;;;;;5034783;28;20571;-88
2023/11/13 03:21:51;;;;;;;24.40;15.60;;;;;;;;;;5035126;28;20559;-90
2023/11/13 03:24:17;;;;;;;19.20;14.50;;;;;;;;;;5033307;28;20413;-88
2023/11/13 03:26:43;;;;;;;28.20;15.20;;;;;;;;;;5034679;28;20508;-86
2023/11/13 03:29:09;;;;;;;17.50;12.70;;;;;;;;;;5033828;28;20432;-88
2023/11/13 03:31:36;;;;;;;20.07;14.83;;;;;;;;;;5034600;28;20480;-91
2023/11/13 03:34:02;;;;;;;22.00;14.37;;;;;;;;;;5033400;28;20417;-90
2023/11/13 03:36:28;;;;;;;18.13;13.80;;;;;;;;;;5035161;28;20811;-90
2023/11/13 03:38:54;;;;;;;21.27;13.67;;;;;;;;;;5036433;28;20421;-90
2023/11/13 03:41:20;;;;;;;21.93;14.80;;;;;;;;;;5037028;28;20452;-85
2023/11/13 03:43:46;;;;;;;20.23;13.53;;;;;;;;;;5033668;28;20456;-87
2023/11/13 03:46:12;;;;;;;30.90;16.90;;;;;;;;;;5035018;28;20500;-93
2023/11/13 03:48:38;;;;;;;23.07;14.60;;;;;;;;;;5035172;28;20905;-92
2023/11/13 03:51:04;;;;;;;22.60;14.93;;;;;;;;;;5034532;28;20638;-92
2023/11/13 03:53:29;;;;;;;20.87;14.17;;;;;;;;;;5034557;28;20416;-93
2023/11/13 03:55:55;;;;;;;24.00;14.43;;;;;;;;;;5034203;28;20401;-87
2023/11/13 03:58:21;;;;;;;114.43;21.20;;;;;;;;;;5034540;28;20437;-91
2023/11/13 04:00:47;;;;;;;79.57;19.50;;;;;;;;;;5035208;28;20405;-93
2023/11/13 04:03:13;;;;;;;35.93;14.73;;;;;;;;;;5034085;28;20500;-86
2023/11/13 04:05:39;;;;;;;50.27;15.13;;;;;;;;;;5032810;28;20509;-93
2023/11/13 04:08:05;;;;;;;29.20;12.70;;;;;;;;;;5034327;28;20420;-92
2023/11/13 04:10:31;;;;;;;30.03;12.63;;;;;;;;;;5033699;28;20479;-93
2023/11/13 04:12:57;;;;;;;21.53;11.50;;;;;;;;;;5025726;28;20416;-93
2023/11/13 04:15:23;;;;;;;22.80;11.70;;;;;;;;;;5034304;28;20446;-91
2023/11/13 04:17:49;;;;;;;21.47;10.97;;;;;;;;;;5034020;28;20410;-92
2023/11/13 04:20:18;;;;;;;16.00;10.80;;;;;;;;;;5034109;28;20420;-92
2023/11/13 04:22:44;;;;;;;15.33;9.67;;;;;;;;;;5033780;28;20398;-94
2023/11/13 04:25:11;;;;;;;17.90;10.40;;;;;;;;;;5016061;28;20429;-87
2023/11/13 04:27:37;;;;;;;14.67;9.43;;;;;;;;;;5014565;28;20414;-86
2023/11/13 04:30:04;;;;;;;16.63;10.03;;;;;;;;;;5013431;28;20473;-92
2023/11/13 04:32:30;;;;;;;33.50;11.87;;;;;;;;;;5013627;28;20445;-85
2023/11/13 04:34:56;;;;;;;17.13;9.73;;;;;;;;;;5029565;28;20418;-92
2023/11/13 04:37:22;;;;;;;16.47;10.93;;;;;;;;;;5014481;28;20509;-91
2023/11/13 04:39:48;;;;;;;20.43;10.10;;;;;;;;;;5014186;28;20515;-89
2023/11/13 04:42:14;;;;;;;17.60;10.60;;;;;;;;;;5014014;28;20422;-88
2023/11/13 04:44:44;;;;;;;16.57;11.20;;;;;;;;;;5014004;28;20487;-85
2023/11/13 04:47:10;;;;;;;17.07;10.80;;;;;;;;;;5013740;28;20483;-87
2023/11/13 04:49:36;;;;;;;18.27;10.80;;;;;;;;;;5014028;28;20514;-88
2023/11/13 04:52:06;;;;;;;20.17;11.27;;;;;;;;;;5013874;28;20969;-91
2023/11/13 04:54:31;;;;;;;18.23;13.10;;;;;;;;;;5028855;28;20661;-90
2023/11/13 04:56:58;;;;;;;16.53;11.20;;;;;;;;;;5015074;28;20461;-85
2023/11/13 04:59:24;;;;;;;16.90;12.30;;;;;;;;;;5035571;28;20448;-84
2023/11/13 05:01:50;;;;;;;16.03;12.57;;;;;;;;;;5065431;28;20442;-81
2023/11/13 05:04:17;;;;;;;19.60;12.87;;;;;;;;;;5063206;28;20428;-87
2023/11/13 05:06:43;;;;;;;19.97;14.10;;;;;;;;;;5059941;28;20436;-84
2023/11/13 05:09:09;;;;;;;19.13;12.10;;;;;;;;;;5058667;28;20934;-85
2023/11/13 05:11:35;;;;;;;15.10;11.33;;;;;;;;;;5053631;28;20564;-93
2023/11/13 05:14:01;;;;;;;21.03;10.93;;;;;;;;;;5052240;28;20413;-85
2023/11/13 05:16:28;;;;;;;15.73;11.33;;;;;;;;;;5046185;28;20944;-88
2023/11/13 05:18:57;;;;;;;20.87;10.73;;;;;;;;;;5003072;28;20423;-90
2023/11/13 05:21:23;;;;;;;15.57;11.07;;;;;;;;;;5033426;28;20409;-89
2023/11/13 05:23:49;;;;;;;14.10;10.17;;;;;;;;;;5033039;28;20471;-86
2023/11/13 05:26:19;;;;;;;18.40;12.37;;;;;;;;;;5032395;28;20424;-90
2023/11/13 05:28:45;;;;;;;23.57;13.33;;;;;;;;;;5033585;28;20409;-89
2023/11/13 05:31:11;;;;;;;13.97;11.50;;;;;;;;;;5033149;28;20483;-88
2023/11/13 05:33:37;;;;;;;18.20;13.47;;;;;;;;;;5033396;28;20410;-88
2023/11/13 05:36:03;;;;;;;17.50;11.17;;;;;;;;;;5033483;28;20413;-86
2023/11/13 05:38:29;;;;;;;14.70;10.93;;;;;;;;;;5032989;28;20973;-92
2023/11/13 05:40:54;;;;;;;14.70;11.60;;;;;;;;;;5028096;28;20440;-89
2023/11/13 05:43:21;;;;;;;12.80;10.73;;;;;;;;;;5024127;28;20415;-90
2023/11/13 05:45:47;;;;;;;14.83;10.47;;;;;;;;;;5036815;28;20895;-87
2023/11/13 05:48:13;;;;;;;17.20;12.47;;;;;;;;;;5036831;28;20424;-90
2023/11/13 05:50:38;;;;;;;15.30;10.77;;;;;;;;;;5035645;28;20534;-89
2023/11/13 05:53:04;;;;;;;15.03;10.43;;;;;;;;;;5037073;28;20404;-89
2023/11/13 05:55:36;;;;;;;18.80;12.90;;;;;;;;;;5036473;28;20421;-89
2023/11/13 05:58:04;;;;;;;18.97;12.27;;;;;;;;;;5036832;28;20401;-91
2023/11/13 06:00:30;;;;;;;17.80;11.43;;;;;;;;;;5036844;28;20755;-88
2023/11/13 06:02:56;;;;;;;16.60;10.93;;;;;;;;;;5035333;28;20413;-90
2023/11/13 06:05:22;;;;;;;18.43;11.17;;;;;;;;;;5036462;28;20478;-90
2023/11/13 06:07:47;;;;;;;18.40;10.80;;;;;;;;;;5036753;28;20401;-91
2023/11/13 06:10:14;;;;;;;17.00;10.50;;;;;;;;;;5035931;28;20820;-89
2023/11/13 06:12:40;;;;;;;16.37;11.40;;;;;;;;;;5035390;28;20950;-85
2023/11/13 06:15:13;;;;;;;17.03;11.00;;;;;;;;;;5045373;28;20523;-84
2023/11/13 06:17:42;;;;;;;18.03;12.10;;;;;;;;;;5043830;28;20789;-84
2023/11/13 06:20:14;;;;;;;17.73;11.17;;;;;;;;;;5044893;28;20418;-85
2023/11/13 06:22:41;;;;;;;15.90;11.17;;;;;;;;;;5038846;28;20421;-85
2023/11/13 06:25:07;;;;;;;19.33;10.63;;;;;;;;;;5023835;28;20416;-84
2023/11/13 06:27:34;;;;;;;18.23;12.70;;;;;;;;;;5015569;28;20786;-84
2023/11/13 06:30:00;;;;;;;23.67;12.80;;;;;;;;;;5015249;28;20475;-83
2023/11/13 06:32:28;;;;;;;17.10;11.73;;;;;;;;;;5015435;28;20430;-85
2023/11/13 06:34:55;;;;;;;17.53;13.20;;;;;;;;;;5035398;28;20454;-83
2023/11/13 06:37:20;;;;;;;21.13;13.10;;;;;;;;;;5033616;28;20429;-86
2023/11/13 06:39:46;;;;;;;16.40;12.40;;;;;;;;;;5033850;28;20835;-83
2023/11/13 06:42:12;;;;;;;18.80;12.10;;;;;;;;;;5034840;28;20914;-85
2023/11/13 06:44:38;;;;;;;19.77;11.90;;;;;;;;;;5035095;28;20418;-86
2023/11/13 06:47:05;;;;;;;18.43;10.77;;;;;;;;;;5033678;28;20503;-83
2023/11/13 06:49:31;;;;;;;17.80;12.40;;;;;;;;;;5034934;28;20423;-84
2023/11/13 06:51:57;;;;;;;19.63;12.07;;;;;;;;;;5035029;28;20478;-83
2023/11/13 06:54:24;;;;;;;18.50;12.43;;;;;;;;;;5032561;28;20924;-83
2023/11/13 06:56:49;;;;;;;18.27;11.77;;;;;;;;;;5035037;28;20431;-85
2023/11/13 06:59:15;;;;;;;21.50;13.40;;;;;;;;;;5035151;28;20516;-83
2023/11/13 07:01:42;;;;;;;19.60;12.17;;;;;;;;;;5034794;28;20916;-83
2023/11/13 07:04:10;;;;;;;18.27;12.57;;;;;;;;;;5034718;28;20409;-87
2023/11/13 07:06:37;;;;;;;19.17;12.27;;;;;;;;;;5034659;28;20797;-87
2023/11/13 07:09:03;;;;;;;19.60;11.40;;;;;;;;;;5034582;28;20431;-82
2023/11/13 07:11:29;;;;;;;18.43;12.70;;;;;;;;;;5034562;28;20555;-87
2023/11/13 07:13:55;;;;;;;15.90;9.60;;;;;;;;;;5034492;28;20413;-84
2023/11/13 07:16:22;;;;;;;18.57;12.30;;;;;;;;;;5033264;28;20429;-86
2023/11/13 07:18:48;;;;;;;17.00;12.20;;;;;;;;;;5034495;28;20466;-83
2023/11/13 07:21:15;;;;;;;16.23;12.13;;;;;;;;;;5034661;28;20425;-88
2023/11/13 07:23:41;;;;;;;21.93;13.97;;;;;;;;;;5033075;28;20928;-88
2023/11/13 07:26:06;;;;;;;17.57;11.83;;;;;;;;;;5034171;28;20424;-84
2023/11/13 07:28:35;;;;;;;21.50;13.40;;;;;;;;;;5032966;28;20417;-82
2023/11/13 07:31:01;;;;;;;15.73;11.13;;;;;;;;;;5033876;28;20481;-86
2023/11/13 07:33:27;;;;;;;18.30;11.53;;;;;;;;;;5034132;28;20417;-85
2023/11/13 07:35:53;;;;;;;15.73;11.57;;;;;;;;;;5034341;28;20440;-87
2023/11/13 07:38:19;;;;;;;22.87;12.60;;;;;;;;;;5034064;28;20411;-87
2023/11/13 07:40:47;;;;;;;15.40;9.47;;;;;;;;;;5033654;28;20960;-83
2023/11/13 07:43:13;;;;;;;21.10;10.40;;;;;;;;;;5032798;28;20470;-86
2023/11/13 07:45:41;;;;;;;15.43;10.27;;;;;;;;;;5033772;28;20928;-84
2023/11/13 07:48:07;;;;;;;15.80;10.07;;;;;;;;;;5033908;28;20402;-82
2023/11/13 07:50:34;;;;;;;13.83;9.90;;;;;;;;;;5033512;28;20585;-83
2023/11/13 07:53:00;;;;;;;20.70;11.80;;;;;;;;;;5033616;28;20407;-80
2023/11/13 07:55:27;;;;;;;17.70;11.20;;;;;;;;;;5033219;28;20420;-80
2023/11/13 07:57:55;;;;;;;17.77;11.03;;;;;;;;;;5033337;28;20462;-81
2023/11/13 08:00:23;;;;;;;15.43;10.00;;;;;;;;;;5019614;28;20413;-80
2023/11/13 08:02:49;;;;;;;16.13;10.40;;;;;;;;;;5009080;28;20444;-82
2023/11/13 08:05:16;;;;;;;16.47;10.60;;;;;;;;;;5031851;28;20450;-80
2023/11/13 08:07:43;;;;;;;15.83;10.23;;;;;;;;;;5033324;28;20475;-81
2023/11/13 08:10:13;;;;;;;12.13;9.30;;;;;;;;;;5032867;28;20463;-81
2023/11/13 08:12:49;;;;;;;13.63;9.53;;;;;;;;;;5024281;28;20803;-83
2023/11/13 08:15:15;;;;;;;15.47;9.43;;;;;;;;;;5013657;28;20417;-81
2023/11/13 08:17:52;;;;;;;12.63;9.97;;;;;;;;;;5013431;28;20419;-80
2023/11/13 08:20:18;;;;;;;13.53;8.97;;;;;;;;;;5028752;28;20906;-81
2023/11/13 08:22:48;;;;;;;10.30;7.60;;;;;;;;;;5013423;28;20497;-82
2023/11/13 08:25:15;;;;;;;12.80;9.20;;;;;;;;;;5013054;28;20410;-83
2023/11/13 08:27:42;;;;;;;11.90;7.60;;;;;;;;;;5013448;28;20921;-84
2023/11/13 08:30:09;;;;;;;11.57;8.50;;;;;;;;;;5013130;28;20793;-83
2023/11/13 08:32:35;;;;;;;11.80;7.93;;;;;;;;;;5013324;28;20424;-83
2023/11/13 08:35:13;;;;;;;13.20;8.23;;;;;;;;;;5013265;28;20413;-84
2023/11/13 08:37:42;;;;;;;11.60;7.80;;;;;;;;;;5013378;28;20410;-84
2023/11/13 08:40:13;;;;;;;11.27;8.17;;;;;;;;;;5028148;28;20416;-83
2023/11/13 08:42:42;;;;;;;7.47;6.10;;;;;;;;;;5034303;28;20440;-82
2023/11/13 08:45:16;;;;;;;8.70;6.00;;;;;;;;;;5047474;28;20902;-85
2023/11/13 08:47:43;;;;;;;9.40;6.17;;;;;;;;;;5051638;28;20412;-83
2023/11/13 08:50:11;;;;;;;10.23;6.93;;;;;;;;;;5052805;28;20469;-82
2023/11/13 08:52:39;;;;;;;10.17;6.43;;;;;;;;;;5052839;28;20404;-84
2023/11/13 08:55:05;;;;;;;14.40;6.70;;;;;;;;;;5052479;28;20430;-84
2023/11/13 08:57:33;;;;;;;7.43;5.60;;;;;;;;;;5051272;28;20408;-83
2023/11/13 08:59:59;;;;;;;8.50;6.40;;;;;;;;;;5048519;28;20415;-84
2023/11/13 09:02:25;;;;;;;6.30;4.90;;;;;;;;;;5004425;28;20430;-80
2023/11/13 09:04:52;;;;;;;10.83;5.00;;;;;;;;;;5052357;28;20444;-85
2023/11/13 09:07:18;;;;;;;7.80;5.30;;;;;;;;;;5052616;28;20408;-83
2023/11/13 09:09:44;;;;;;;7.57;5.20;;;;;;;;;;5052296;28;20471;-87
2023/11/13 09:12:12;;;;;;;9.03;5.90;;;;;;;;;;5052846;28;20423;-81
2023/11/13 09:14:38;;;;;;;12.27;6.37;;;;;;;;;;5052730;28;20486;-81
2023/11/13 09:17:12;;;;;;;8.83;6.47;;;;;;;;;;5053637;28;20406;-80
2023/11/13 09:19:41;;;;;;;8.90;5.60;;;;;;;;;;5056635;28;20414;-85
2023/11/13 09:22:12;;;;;;;9.00;4.40;;;;;;;;;;5056584;28;20417;-82
2023/11/13 09:24:41;;;;;;;7.60;5.70;;;;;;;;;;5056145;28;20767;-84
2023/11/13 09:27:09;;;;;;;6.57;4.27;;;;;;;;;;5056198;28;20425;-80
2023/11/13 09:29:36;;;;;;;9.43;5.80;;;;;;;;;;5056284;28;20434;-84
2023/11/13 09:32:02;;;;;;;10.80;5.60;;;;;;;;;;5056184;28;20465;-80
2023/11/13 09:34:28;;;;;;;6.87;4.33;;;;;;;;;;5056257;28;20418;-84
2023/11/13 09:36:53;;;;;;;5.93;4.97;;;;;;;;;;5056239;28;20422;-85
2023/11/13 09:39:19;;;;;;;8.63;5.40;;;;;;;;;;5064559;28;20484;-83
2023/11/13 09:41:51;;;;;;;8.33;6.33;;;;;;;;;;5041334;28;20431;-83
2023/11/13 09:44:18;;;;;;;7.90;5.00;;;;;;;;;;5044789;28;20896;-84
2023/11/13 09:46:44;;;;;;;8.40;5.70;;;;;;;;;;5052485;28;20414;-83
2023/11/13 09:49:12;;;;;;;6.03;3.60;;;;;;;;;;5044246;28;20423;-84
2023/11/13 09:51:39;;;;;;;8.60;5.37;;;;;;;;;;5037223;28;20871;-84
2023/11/13 09:54:05;;;;;;;6.43;5.17;;;;;;;;;;5044928;28;20503;-83
2023/11/13 09:56:31;;;;;;;7.10;5.57;;;;;;;;;;5043865;28;20466;-83
2023/11/13 09:59:02;;;;;;;7.83;5.40;;;;;;;;;;5035880;28;20443;-83
2023/11/13 10:01:28;;;;;;;6.10;4.40;;;;;;;;;;5034470;28;20178;-85
2023/11/13 10:03:55;;;;;;;6.60;4.70;;;;;;;;;;5035917;28;20830;-82
2023/11/13 10:06:21;;;;;;;10.20;5.13;;;;;;;;;;5035859;28;20422;-85
2023/11/13 10:08:49;;;;;;;6.80;3.90;;;;;;;;;;5035366;28;20753;-86
2023/11/13 10:11:16;;;;;;;6.27;3.70;;;;;;;;;;5035925;28;20518;-90
2023/11/13 10:13:42;;;;;;;6.20;4.70;;;;;;;;;;5038328;28;20421;-85
2023/11/13 10:16:22;;;;;;;6.87;4.47;;;;;;;;;;5035653;28;20412;-86
2023/11/13 10:18:49;;;;;;;8.77;4.87;;;;;;;;;;5035577;28;20414;-81
2023/11/13 10:21:33;;;;;;;9.13;4.60;;;;;;;;;;5035229;28;21025;-82
2023/11/13 10:24:19;;;;;;;8.43;4.73;;;;;;;;;;5035499;28;20431;-84
2023/11/13 10:26:52;;;;;;;6.50;3.53;;;;;;;;;;5035742;28;20415;-83
2023/11/13 10:29:24;;;;;;;6.97;4.27;;;;;;;;;;5033679;28;20746;-86
2023/11/13 10:31:52;;;;;;;9.50;4.63;;;;;;;;;;5034164;28;20601;-85
2023/11/13 10:34:18;;;;;;;5.10;3.80;;;;;;;;;;5034061;28;20773;-85
2023/11/13 10:36:44;;;;;;;5.77;4.60;;;;;;;;;;5001007;28;20984;-83
2023/11/13 10:39:16;;;;;;;7.10;3.93;;;;;;;;;;5051920;28;20411;-86
2023/11/13 10:41:45;;;;;;;9.07;5.17;;;;;;;;;;5054656;28;20419;-85
2023/11/13 10:44:22;;;;;;;5.23;4.10;;;;;;;;;;5069880;28;20483;-86
2023/11/13 10:46:49;;;;;;;7.63;4.30;;;;;;;;;;5055054;28;20415;-86
2023/11/13 10:49:17;;;;;;;6.70;5.40;;;;;;;;;;5054885;28;20408;-85
2023/11/13 10:51:47;;;;;;;8.03;4.70;;;;;;;;;;5046062;28;20474;-85
2023/11/13 10:54:15;;;;;;;9.10;4.47;;;;;;;;;;5030075;28;20830;-88
2023/11/13 10:56:41;;;;;;;6.13;4.33;;;;;;;;;;5030322;28;20925;-89
2023/11/13 10:59:10;;;;;;;8.13;4.73;;;;;;;;;;5015536;28;20501;-88
2023/11/13 11:01:36;;;;;;;6.40;4.80;;;;;;;;;;5015271;28;20448;-88
2023/11/13 11:04:06;;;;;;;5.20;3.53;;;;;;;;;;5030256;28;20522;-87
2023/11/13 11:06:35;;;;;;;6.30;4.30;;;;;;;;;;5030580;28;20419;-89
2023/11/13 11:09:07;;;;;;;6.73;4.50;;;;;;;;;;5015073;28;20420;-89
2023/11/13 11:11:36;;;;;;;6.70;4.80;;;;;;;;;;5015009;28;20500;-89
2023/11/13 11:14:06;;;;;;;7.53;5.50;;;;;;;;;;5014972;28;20416;-87
2023/11/13 11:16:36;;;;;;;4.57;3.80;;;;;;;;;;5014757;28;20429;-88
2023/11/13 11:19:16;;;;;;;7.73;5.27;;;;;;;;;;5031121;28;20505;-87
2023/11/13 11:22:00;;;;;;;9.17;5.40;;;;;;;;;;5034716;28;20496;-87
2023/11/13 11:24:43;;;;;;;6.93;5.20;;;;;;;;;;5034242;28;20850;-88
2023/11/13 11:27:10;;;;;;;8.30;4.70;;;;;;;;;;5033339;28;20429;-87
2023/11/13 11:29:40;;;;;;;6.67;5.50;;;;;;;;;;5034377;28;20418;-89
2023/11/13 11:32:13;;;;;;;8.60;5.73;;;;;;;;;;5034419;28;20466;-86
2023/11/13 11:34:40;;;;;;;9.37;5.03;;;;;;;;;;5034827;28;20404;-88
2023/11/13 11:37:11;;;;;;;8.50;5.87;;;;;;;;;;5034349;28;20424;-87
2023/11/13 11:39:47;;;;;;;7.77;4.90;;;;;;;;;;5033659;28;20496;-89
2023/11/13 11:42:20;;;;;;;7.33;5.03;;;;;;;;;;5034493;28;20430;-87
2023/11/13 11:44:59;;;;;;;11.50;5.90;;;;;;;;;;5034162;28;20466;-88
2023/11/13 11:47:26;;;;;;;10.50;4.77;;;;;;;;;;5034026;28;20411;-89
2023/11/13 11:49:52;;;;;;;7.30;5.17;;;;;;;;;;5034121;28;20514;-83
2023/11/13 11:52:18;;;;;;;10.60;4.23;;;;;;;;;;5034755;28;20407;-87
2023/11/13 11:54:45;;;;;;;6.63;4.13;;;;;;;;;;5009995;28;20511;-86
2023/11/13 11:57:12;;;;;;;5.90;4.07;;;;;;;;;;5053634;28;20411;-83
2023/11/13 11:59:39;;;;;;;6.87;3.70;;;;;;;;;;5053892;28;20400;-87
2023/11/13 12:02:06;;;;;;;7.87;4.93;;;;;;;;;;5053841;28;20806;-87
2023/11/13 12:04:37;;;;;;;5.73;3.30;;;;;;;;;;5053699;28;20402;-83
2023/11/13 12:07:09;;;;;;;5.57;3.40;;;;;;;;;;5053805;28;20407;-83
2023/11/13 12:09:36;;;;;;;6.57;3.70;;;;;;;;;;5053259;28;20403;-85
2023/11/13 12:12:03;;;;;;;6.43;3.60;;;;;;;;;;5053489;28;20430;-84
2023/11/13 12:14:29;;;;;;;4.60;3.20;;;;;;;;;;5053517;28;20430;-88
2023/11/13 12:16:55;;;;;;;9.70;3.83;;;;;;;;;;5053625;28;20417;-82
2023/11/13 12:19:23;;;;;;;7.10;2.90;;;;;;;;;;5053326;28;20484;-85
2023/11/13 12:21:49;;;;;;;5.53;3.60;;;;;;;;;;5053402;28;20418;-86
2023/11/13 12:24:17;;;;;;;4.60;2.60;;;;;;;;;;5053167;28;20416;-84
2023/11/13 12:26:44;;;;;;;9.80;2.37;;;;;;;;;;5053249;28;20816;-84
2023/11/13 12:29:14;;;;;;;6.77;2.80;;;;;;;;;;5068819;28;20433;-83
2023/11/13 12:31:41;;;;;;;4.50;2.77;;;;;;;;;;5053120;28;20477;-84
2023/11/13 12:34:07;;;;;;;4.10;2.13;;;;;;;;;;5053122;28;20415;-83
2023/11/13 12:36:33;;;;;;;2.60;1.37;;;;;;;;;;5053664;28;20424;-85
2023/11/13 12:39:04;;;;;;;2.97;1.60;;;;;;;;;;5053156;28;20937;-86
2023/11/13 12:41:30;;;;;;;3.30;1.70;;;;;;;;;;5068853;28;20437;-86
2023/11/13 12:43:56;;;;;;;3.90;1.20;;;;;;;;;;5053153;28;20415;-82
2023/11/13 12:46:23;;;;;;;2.53;0.63;;;;;;;;;;5053453;28;20420;-85
2023/11/13 12:48:50;;;;;;;6.00;1.63;;;;;;;;;;5053313;28;20452;-89
2023/11/13 12:51:16;;;;;;;2.70;1.13;;;;;;;;;;5053373;28;20478;-87
2023/11/13 12:53:49;;;;;;;5.07;1.13;;;;;;;;;;5056764;28;20401;-85
2023/11/13 12:56:16;;;;;;;4.93;1.00;;;;;;;;;;5057560;28;20428;-85
2023/11/13 12:58:45;;;;;;;1.00;0.43;;;;;;;;;;4983731;28;20487;-84
2023/11/13 13:01:12;;;;;;;2.97;0.80;;;;;;;;;;5017640;28;20421;-86
2023/11/13 13:03:40;;;;;;;2.93;1.03;;;;;;;;;;5032683;28;20406;-86
2023/11/13 13:06:08;;;;;;;2.20;0.73;;;;;;;;;;5032673;28;20421;-89
2023/11/13 13:08:34;;;;;;;3.00;1.00;;;;;;;;;;5017216;28;20408;-86
2023/11/13 13:11:01;;;;;;;3.07;0.80;;;;;;;;;;5033141;28;20565;-85
2023/11/13 13:13:27;;;;;;;2.73;1.10;;;;;;;;;;5017608;28;20438;-88
2023/11/13 13:15:53;;;;;;;3.63;1.77;;;;;;;;;;5042560;28;20429;-87
2023/11/13 13:18:19;;;;;;;3.60;1.27;;;;;;;;;;5050077;28;20421;-84
2023/11/13 13:20:45;;;;;;;1.60;0.87;;;;;;;;;;5059166;28;20500;-87
2023/11/13 13:23:12;;;;;;;2.10;0.90;;;;;;;;;;5049346;28;20512;-85
2023/11/13 13:25:39;;;;;;;3.13;1.20;;;;;;;;;;5048452;28;20791;-81
2023/11/13 13:28:06;;;;;;;2.07;0.60;;;;;;;;;;5048596;28;20448;-88
2023/11/13 13:30:32;;;;;;;4.27;1.53;;;;;;;;;;5056680;28;20512;-86
2023/11/13 13:33:02;;;;;;;2.37;1.17;;;;;;;;;;5057454;28;20462;-80
2023/11/13 13:35:28;;;;;;;2.73;1.30;;;;;;;;;;5054772;28;20849;-82
2023/11/13 13:37:54;;;;;;;2.50;1.00;;;;;;;;;;5046565;28;20442;-85
2023/11/13 13:40:21;;;;;;;4.60;1.60;;;;;;;;;;5041474;28;20934;-87
2023/11/13 13:42:47;;;;;;;3.40;1.43;;;;;;;;;;5059689;28;20392;-87
2023/11/13 13:45:18;;;;;;;2.90;1.33;;;;;;;;;;5059513;28;20404;-87
2023/11/13 13:47:48;;;;;;;4.28;2.00;;;;;;;;;;5058783;28;20733;-87
2023/11/13 13:50:17;;;;;;;3.87;1.97;;;;;;;;;;5060062;28;20202;-88
2023/11/13 13:52:46;;;;;;;4.67;2.37;;;;;;;;;;5058957;28;20780;-89
2023/11/13 13:55:12;;;;;;;4.67;2.00;;;;;;;;;;5057237;28;20421;-85
2023/11/13 13:57:44;;;;;;;5.57;2.90;;;;;;;;;;5007200;28;20916;-87
2023/11/13 14:00:14;;;;;;;4.70;2.97;;;;;;;;;;5036356;28;20794;-83
2023/11/13 14:02:40;;;;;;;4.80;2.60;;;;;;;;;;5036417;28;20820;-86
2023/11/13 14:05:06;;;;;;;8.10;4.37;;;;;;;;;;5037486;28;20470;-86
2023/11/13 14:07:32;;;;;;;4.73;2.83;;;;;;;;;;5035879;28;20498;-86
2023/11/13 14:09:58;;;;;;;5.63;3.13;;;;;;;;;;5045946;28;20414;-85
2023/11/13 14:12:24;;;;;;;6.10;3.10;;;;;;;;;;5056280;28;20408;-83
2023/11/13 14:14:51;;;;;;;3.80;2.43;;;;;;;;;;5056426;28;20181;-83
2023/11/13 14:17:18;;;;;;;7.80;4.40;;;;;;;;;;5055790;28;20402;-82
2023/11/13 14:19:44;;;;;;;6.83;3.13;;;;;;;;;;5071089;28;20506;-82
2023/11/13 14:22:13;;;;;;;8.33;4.03;;;;;;;;;;5037688;28;20771;-86
2023/11/13 14:24:39;;;;;;;7.07;4.30;;;;;;;;;;5035531;28;20452;-85
2023/11/13 14:27:05;;;;;;;9.23;4.77;;;;;;;;;;5035540;28;20412;-86
2023/11/13 14:29:33;;;;;;;8.00;4.20;;;;;;;;;;5035451;28;20482;-84